sensor_id;sensor_type;location;lat;lon;timestamp;P1;durP1;ratioP1;P2;durP2;ratioP2
66298;SDS011;53098;47.658;8.578;2024-01-11T00:00:55;34.80;;;14.33;;
66298;SDS011;53098;47.658;8.578;2024-01-11T00:03:21;37.50;;;14.93;;
66298;SDS011;53098;47.658;8.578;2024-01-11T00:05:46;32.07;;;14.57;;
66298;SDS011;53098;47.658;8.578;2024-01-11T00:08:11;29.87;;;13.93;;
66298;SDS011;53098;47.658;8.578;2024-01-11T00:10:37;33.23;;;14.50;;
66298;SDS011;53098;47.658;8.578;2024-01-11T00:13:02;34.27;;;15.17;;
66298;SDS011;53098;47.658;8.578;2024-01-11T00:15:27;32.85;;;13.18;;
66298;SDS011;53098;47.658;8.578;2024-01-11T00:17:52;33.60;;;15.27;;
66298;SDS011;53098;47.658;8.578;2024-01-11T00:20:18;36.60;;;16.23;;
66298;SDS011;53098;47.658;8.578;2024-01-11T00:22:43;34.75;;;15.75;;
66298;SDS011;53098;47.658;8.578;2024-01-11T00:25:08;41.33;;;16.27;;
66298;SDS011;53098;47.658;8.578;2024-01-11T00:27:34;35.37;;;16.10;;
66298;SDS011;53098;47.658;8.578;2024-01-11T00:29:59;39.83;;;15.50;;
66298;SDS011;53098;47.658;8.578;2024-01-11T00:32:24;39.50;;;16.97;;
66298;SDS011;53098;47.658;8.578;2024-01-11T00:34:49;36.57;;;16.73;;
66298;SDS011;53098;47.658;8.578;2024-01-11T00:37:14;36.40;;;15.43;;
66298;SDS011;53098;47.658;8.578;2024-01-11T00:39:40;36.63;;;15.97;;
66298;SDS011;53098;47.658;8.578;2024-01-11T00:42:05;36.23;;;15.73;;
66298;SDS011;53098;47.658;8.578;2024-01-11T00:44:30;39.45;;;16.83;;
66298;SDS011;53098;47.658;8.578;2024-01-11T00:46:55;35.53;;;17.37;;
66298;SDS011;53098;47.658;8.578;2024-01-11T00:49:21;41.57;;;17.37;;
66298;SDS011;53098;47.658;8.578;2024-01-11T00:51:46;36.50;;;16.93;;
66298;SDS011;53098;47.658;8.578;2024-01-11T00:54:11;40.22;;;16.75;;
66298;SDS011;53098;47.658;8.578;2024-01-11T00:56:37;37.17;;;15.67;;
66298;SDS011;53098;47.658;8.578;2024-01-11T00:59:02;39.03;;;17.87;;
66298;SDS011;53098;47.658;8.578;2024-01-11T01:01:28;39.50;;;17.65;;
66298;SDS011;53098;47.658;8.578;2024-01-11T01:03:53;36.97;;;16.93;;
66298;SDS011;53098;47.658;8.578;2024-01-11T01:06:18;37.03;;;17.07;;
66298;SDS011;53098;47.658;8.578;2024-01-11T01:08:44;40.33;;;17.33;;
66298;SDS011;53098;47.658;8.578;2024-01-11T01:11:09;37.23;;;15.73;;
66298;SDS011;53098;47.658;8.578;2024-01-11T01:13:34;39.13;;;17.27;;
66298;SDS011;53098;47.658;8.578;2024-01-11T01:15:59;40.80;;;18.17;;
66298;SDS011;53098;47.658;8.578;2024-01-11T01:18:25;41.90;;;18.27;;
66298;SDS011;53098;47.658;8.578;2024-01-11T01:20:50;38.83;;;16.80;;
66298;SDS011;53098;47.658;8.578;2024-01-11T01:23:16;38.75;;;17.33;;
66298;SDS011;53098;47.658;8.578;2024-01-11T01:25:41;38.03;;;17.43;;
66298;SDS011;53098;47.658;8.578;2024-01-11T01:28:06;46.33;;;18.70;;
66298;SDS011;53098;47.658;8.578;2024-01-11T01:30:31;38.80;;;17.00;;
66298;SDS011;53098;47.658;8.578;2024-01-11T01:32:56;37.93;;;16.77;;
66298;SDS011;53098;47.658;8.578;2024-01-11T01:35:22;42.13;;;18.77;;
66298;SDS011;53098;47.658;8.578;2024-01-11T01:37:47;35.97;;;18.00;;
66298;SDS011;53098;47.658;8.578;2024-01-11T01:40:12;42.43;;;17.17;;
66298;SDS011;53098;47.658;8.578;2024-01-11T01:42:44;40.13;;;17.50;;
66298;SDS011;53098;47.658;8.578;2024-01-11T01:45:10;42.22;;;17.73;;
66298;SDS011;53098;47.658;8.578;2024-01-11T01:47:36;41.35;;;19.13;;
66298;SDS011;53098;47.658;8.578;2024-01-11T01:50:01;35.85;;;16.38;;
66298;SDS011;53098;47.658;8.578;2024-01-11T01:52:27;40.78;;;17.55;;
66298;SDS011;53098;47.658;8.578;2024-01-11T01:54:52;42.83;;;18.37;;
66298;SDS011;53098;47.658;8.578;2024-01-11T01:57:18;40.03;;;17.52;;
66298;SDS011;53098;47.658;8.578;2024-01-11T01:59:44;42.67;;;19.02;;
66298;SDS011;53098;47.658;8.578;2024-01-11T02:02:10;41.28;;;18.52;;
66298;SDS011;53098;47.658;8.578;2024-01-11T02:04:35;41.13;;;17.48;;
66298;SDS011;53098;47.658;8.578;2024-01-11T02:07:01;42.00;;;18.45;;
66298;SDS011;53098;47.658;8.578;2024-01-11T02:09:26;38.58;;;17.75;;
66298;SDS011;53098;47.658;8.578;2024-01-11T02:11:53;41.30;;;18.33;;
66298;SDS011;53098;47.658;8.578;2024-01-11T02:14:19;41.05;;;17.40;;
66298;SDS011;53098;47.658;8.578;2024-01-11T02:16:45;45.42;;;19.27;;
66298;SDS011;53098;47.658;8.578;2024-01-11T02:19:12;40.47;;;17.65;;
66298;SDS011;53098;47.658;8.578;2024-01-11T02:21:38;43.25;;;18.20;;
66298;SDS011;53098;47.658;8.578;2024-01-11T02:24:03;39.42;;;17.48;;
66298;SDS011;53098;47.658;8.578;2024-01-11T02:26:29;43.08;;;18.17;;
66298;SDS011;53098;47.658;8.578;2024-01-11T02:28:55;44.03;;;17.98;;
66298;SDS011;53098;47.658;8.578;2024-01-11T02:31:20;36.53;;;16.87;;
66298;SDS011;53098;47.658;8.578;2024-01-11T02:33:45;42.60;;;17.97;;
66298;SDS011;53098;47.658;8.578;2024-01-11T02:36:11;42.77;;;18.93;;
66298;SDS011;53098;47.658;8.578;2024-01-11T02:38:37;41.45;;;18.50;;
66298;SDS011;53098;47.658;8.578;2024-01-11T02:41:03;40.03;;;18.55;;
66298;SDS011;53098;47.658;8.578;2024-01-11T02:43:28;42.65;;;19.45;;
66298;SDS011;53098;47.658;8.578;2024-01-11T02:45:54;41.00;;;19.02;;
66298;SDS011;53098;47.658;8.578;2024-01-11T02:48:19;43.30;;;19.75;;
66298;SDS011;53098;47.658;8.578;2024-01-11T02:50:45;38.40;;;18.33;;
66298;SDS011;53098;47.658;8.578;2024-01-11T02:53:10;42.43;;;19.60;;
66298;SDS011;53098;47.658;8.578;2024-01-11T02:55:35;41.60;;;16.93;;
66298;SDS011;53098;47.658;8.578;2024-01-11T02:58:00;45.23;;;19.93;;
66298;SDS011;53098;47.658;8.578;2024-01-11T03:00:26;41.70;;;18.80;;
66298;SDS011;53098;47.658;8.578;2024-01-11T03:02:51;46.58;;;20.08;;
66298;SDS011;53098;47.658;8.578;2024-01-11T03:05:16;43.77;;;17.97;;
66298;SDS011;53098;47.658;8.578;2024-01-11T03:07:41;43.50;;;18.50;;
66298;SDS011;53098;47.658;8.578;2024-01-11T03:10:07;36.70;;;17.63;;
66298;SDS011;53098;47.658;8.578;2024-01-11T03:12:32;43.97;;;18.50;;
66298;SDS011;53098;47.658;8.578;2024-01-11T03:14:57;43.57;;;19.67;;
66298;SDS011;53098;47.658;8.578;2024-01-11T03:17:23;43.27;;;19.33;;
66298;SDS011;53098;47.658;8.578;2024-01-11T03:19:48;44.05;;;20.40;;
66298;SDS011;53098;47.658;8.578;2024-01-11T03:22:13;44.23;;;18.77;;
66298;SDS011;53098;47.658;8.578;2024-01-11T03:24:38;45.13;;;19.80;;
66298;SDS011;53098;47.658;8.578;2024-01-11T03:27:04;47.17;;;20.27;;
66298;SDS011;53098;47.658;8.578;2024-01-11T03:29:29;45.83;;;20.65;;
66298;SDS011;53098;47.658;8.578;2024-01-11T03:31:54;44.03;;;19.85;;
66298;SDS011;53098;47.658;8.578;2024-01-11T03:34:20;48.40;;;20.57;;
66298;SDS011;53098;47.658;8.578;2024-01-11T03:36:45;45.50;;;19.83;;
66298;SDS011;53098;47.658;8.578;2024-01-11T03:39:10;44.00;;;18.97;;
66298;SDS011;53098;47.658;8.578;2024-01-11T03:41:36;42.13;;;20.53;;
66298;SDS011;53098;47.658;8.578;2024-01-11T03:44:01;42.53;;;19.83;;
66298;SDS011;53098;47.658;8.578;2024-01-11T03:46:26;46.67;;;20.13;;
66298;SDS011;53098;47.658;8.578;2024-01-11T03:48:51;40.67;;;19.67;;
66298;SDS011;53098;47.658;8.578;2024-01-11T03:51:17;41.37;;;19.23;;
66298;SDS011;53098;47.658;8.578;2024-01-11T03:53:42;43.83;;;19.70;;
66298;SDS011;53098;47.658;8.578;2024-01-11T03:56:07;40.90;;;18.87;;
66298;SDS011;53098;47.658;8.578;2024-01-11T03:58:32;44.03;;;18.27;;
66298;SDS011;53098;47.658;8.578;2024-01-11T04:00:58;47.27;;;19.97;;
66298;SDS011;53098;47.658;8.578;2024-01-11T04:03:23;48.53;;;19.27;;
66298;SDS011;53098;47.658;8.578;2024-01-11T04:05:48;40.33;;;19.10;;
66298;SDS011;53098;47.658;8.578;2024-01-11T04:08:13;41.10;;;18.27;;
66298;SDS011;53098;47.658;8.578;2024-01-11T04:10:38;46.20;;;18.37;;
66298;SDS011;53098;47.658;8.578;2024-01-11T04:13:04;42.53;;;20.73;;
66298;SDS011;53098;47.658;8.578;2024-01-11T04:15:29;46.77;;;19.30;;
66298;SDS011;53098;47.658;8.578;2024-01-11T04:17:54;46.87;;;20.20;;
66298;SDS011;53098;47.658;8.578;2024-01-11T04:20:20;40.20;;;18.07;;
66298;SDS011;53098;47.658;8.578;2024-01-11T04:22:45;43.73;;;18.40;;
66298;SDS011;53098;47.658;8.578;2024-01-11T04:25:10;47.33;;;19.37;;
66298;SDS011;53098;47.658;8.578;2024-01-11T04:27:35;45.33;;;19.20;;
66298;SDS011;53098;47.658;8.578;2024-01-11T04:30:01;40.38;;;17.23;;
66298;SDS011;53098;47.658;8.578;2024-01-11T04:32:26;42.50;;;18.87;;
66298;SDS011;53098;47.658;8.578;2024-01-11T04:34:52;43.38;;;18.48;;
66298;SDS011;53098;47.658;8.578;2024-01-11T04:37:18;43.80;;;18.27;;
66298;SDS011;53098;47.658;8.578;2024-01-11T04:39:43;39.30;;;17.77;;
66298;SDS011;53098;47.658;8.578;2024-01-11T04:42:08;42.80;;;18.33;;
66298;SDS011;53098;47.658;8.578;2024-01-11T04:44:34;45.72;;;19.15;;
66298;SDS011;53098;47.658;8.578;2024-01-11T04:46:59;41.43;;;18.80;;
66298;SDS011;53098;47.658;8.578;2024-01-11T04:49:24;41.13;;;18.43;;
66298;SDS011;53098;47.658;8.578;2024-01-11T04:51:49;43.03;;;19.17;;
66298;SDS011;53098;47.658;8.578;2024-01-11T04:54:15;44.45;;;20.55;;
66298;SDS011;53098;47.658;8.578;2024-01-11T04:56:40;42.43;;;18.80;;
66298;SDS011;53098;47.658;8.578;2024-01-11T04:59:05;40.60;;;18.47;;
66298;SDS011;53098;47.658;8.578;2024-01-11T05:01:31;39.70;;;16.87;;
66298;SDS011;53098;47.658;8.578;2024-01-11T05:03:56;38.57;;;16.17;;
66298;SDS011;53098;47.658;8.578;2024-01-11T05:06:21;37.93;;;17.13;;
66298;SDS011;53098;47.658;8.578;2024-01-11T05:08:47;37.85;;;16.33;;
66298;SDS011;53098;47.658;8.578;2024-01-11T05:11:16;36.83;;;16.30;;
66298;SDS011;53098;47.658;8.578;2024-01-11T05:13:41;37.38;;;16.27;;
66298;SDS011;53098;47.658;8.578;2024-01-11T05:16:06;40.73;;;16.90;;
66298;SDS011;53098;47.658;8.578;2024-01-11T05:18:32;39.70;;;17.63;;
66298;SDS011;53098;47.658;8.578;2024-01-11T05:20:57;41.97;;;18.83;;
66298;SDS011;53098;47.658;8.578;2024-01-11T05:23:22;41.40;;;18.00;;
66298;SDS011;53098;47.658;8.578;2024-01-11T05:25:48;40.63;;;17.58;;
66298;SDS011;53098;47.658;8.578;2024-01-11T05:28:13;43.35;;;18.67;;
66298;SDS011;53098;47.658;8.578;2024-01-11T05:30:39;45.67;;;19.00;;
66298;SDS011;53098;47.658;8.578;2024-01-11T05:33:04;43.40;;;18.63;;
66298;SDS011;53098;47.658;8.578;2024-01-11T05:35:29;49.88;;;20.27;;
66298;SDS011;53098;47.658;8.578;2024-01-11T05:37:55;48.73;;;21.03;;
66298;SDS011;53098;47.658;8.578;2024-01-11T05:40:20;52.17;;;20.73;;
66298;SDS011;53098;47.658;8.578;2024-01-11T05:42:45;44.20;;;19.93;;
66298;SDS011;53098;47.658;8.578;2024-01-11T05:45:10;44.93;;;19.73;;
66298;SDS011;53098;47.658;8.578;2024-01-11T05:47:36;46.60;;;20.60;;
66298;SDS011;53098;47.658;8.578;2024-01-11T05:50:01;41.27;;;18.77;;
66298;SDS011;53098;47.658;8.578;2024-01-11T05:52:26;44.33;;;20.03;;
66298;SDS011;53098;47.658;8.578;2024-01-11T05:54:51;51.63;;;21.33;;
66298;SDS011;53098;47.658;8.578;2024-01-11T05:57:17;46.17;;;20.63;;
66298;SDS011;53098;47.658;8.578;2024-01-11T05:59:45;48.03;;;20.57;;
66298;SDS011;53098;47.658;8.578;2024-01-11T06:02:11;45.38;;;19.65;;
66298;SDS011;53098;47.658;8.578;2024-01-11T06:04:36;46.58;;;19.90;;
66298;SDS011;53098;47.658;8.578;2024-01-11T06:07:01;47.83;;;21.77;;
66298;SDS011;53098;47.658;8.578;2024-01-11T06:09:27;41.65;;;19.65;;
66298;SDS011;53098;47.658;8.578;2024-01-11T06:11:52;46.00;;;20.00;;
66298;SDS011;53098;47.658;8.578;2024-01-11T06:14:17;42.53;;;20.17;;
66298;SDS011;53098;47.658;8.578;2024-01-11T06:16:43;45.10;;;18.27;;
66298;SDS011;53098;47.658;8.578;2024-01-11T06:19:08;45.38;;;18.88;;
66298;SDS011;53098;47.658;8.578;2024-01-11T06:21:33;43.67;;;19.40;;
66298;SDS011;53098;47.658;8.578;2024-01-11T06:23:59;46.43;;;20.53;;
66298;SDS011;53098;47.658;8.578;2024-01-11T06:26:24;51.43;;;21.57;;
66298;SDS011;53098;47.658;8.578;2024-01-11T06:28:49;46.00;;;20.73;;
66298;SDS011;53098;47.658;8.578;2024-01-11T06:31:14;49.37;;;20.60;;
66298;SDS011;53098;47.658;8.578;2024-01-11T06:33:40;50.43;;;21.83;;
66298;SDS011;53098;47.658;8.578;2024-01-11T06:36:05;45.23;;;21.33;;
66298;SDS011;53098;47.658;8.578;2024-01-11T06:38:31;49.47;;;22.77;;
66298;SDS011;53098;47.658;8.578;2024-01-11T06:40:56;51.20;;;22.00;;
66298;SDS011;53098;47.658;8.578;2024-01-11T06:43:21;48.73;;;22.33;;
66298;SDS011;53098;47.658;8.578;2024-01-11T06:45:47;52.13;;;22.03;;
66298;SDS011;53098;47.658;8.578;2024-01-11T06:48:12;50.20;;;21.97;;
66298;SDS011;53098;47.658;8.578;2024-01-11T06:50:37;47.85;;;22.52;;
66298;SDS011;53098;47.658;8.578;2024-01-11T06:53:03;51.97;;;22.90;;
66298;SDS011;53098;47.658;8.578;2024-01-11T06:55:28;48.80;;;21.30;;
66298;SDS011;53098;47.658;8.578;2024-01-11T06:57:53;48.57;;;20.67;;
66298;SDS011;53098;47.658;8.578;2024-01-11T07:00:19;49.33;;;21.00;;
66298;SDS011;53098;47.658;8.578;2024-01-11T07:02:44;51.33;;;22.67;;
66298;SDS011;53098;47.658;8.578;2024-01-11T07:05:11;50.87;;;21.30;;
66298;SDS011;53098;47.658;8.578;2024-01-11T07:07:37;42.63;;;20.10;;
66298;SDS011;53098;47.658;8.578;2024-01-11T07:10:02;45.87;;;21.17;;
66298;SDS011;53098;47.658;8.578;2024-01-11T07:12:27;46.30;;;20.77;;
66298;SDS011;53098;47.658;8.578;2024-01-11T07:14:53;46.42;;;20.42;;
66298;SDS011;53098;47.658;8.578;2024-01-11T07:17:18;47.90;;;21.55;;
66298;SDS011;53098;47.658;8.578;2024-01-11T07:19:44;51.65;;;21.02;;
66298;SDS011;53098;47.658;8.578;2024-01-11T07:22:09;49.22;;;22.35;;
66298;SDS011;53098;47.658;8.578;2024-01-11T07:24:35;49.10;;;21.50;;
66298;SDS011;53098;47.658;8.578;2024-01-11T07:27:00;50.00;;;21.23;;
66298;SDS011;53098;47.658;8.578;2024-01-11T07:29:26;51.67;;;22.65;;
66298;SDS011;53098;47.658;8.578;2024-01-11T07:31:51;46.33;;;20.85;;
66298;SDS011;53098;47.658;8.578;2024-01-11T07:34:16;47.25;;;19.70;;
66298;SDS011;53098;47.658;8.578;2024-01-11T07:36:42;51.17;;;21.70;;
66298;SDS011;53098;47.658;8.578;2024-01-11T07:39:07;46.85;;;21.77;;
66298;SDS011;53098;47.658;8.578;2024-01-11T07:41:32;46.63;;;19.83;;
66298;SDS011;53098;47.658;8.578;2024-01-11T07:43:58;45.03;;;20.87;;
66298;SDS011;53098;47.658;8.578;2024-01-11T07:46:23;50.50;;;24.17;;
66298;SDS011;53098;47.658;8.578;2024-01-11T07:48:48;54.38;;;22.58;;
66298;SDS011;53098;47.658;8.578;2024-01-11T07:51:14;45.87;;;19.97;;
66298;SDS011;53098;47.658;8.578;2024-01-11T07:53:39;49.73;;;21.13;;
66298;SDS011;53098;47.658;8.578;2024-01-11T07:56:04;50.00;;;19.90;;
66298;SDS011;53098;47.658;8.578;2024-01-11T07:58:30;47.75;;;20.35;;
66298;SDS011;53098;47.658;8.578;2024-01-11T08:00:55;44.30;;;20.93;;
66298;SDS011;53098;47.658;8.578;2024-01-11T08:03:20;50.33;;;21.53;;
66298;SDS011;53098;47.658;8.578;2024-01-11T08:05:46;42.58;;;18.52;;
66298;SDS011;53098;47.658;8.578;2024-01-11T08:08:11;49.50;;;20.40;;
66298;SDS011;53098;47.658;8.578;2024-01-11T08:10:36;43.38;;;20.80;;
66298;SDS011;53098;47.658;8.578;2024-01-11T08:13:02;43.10;;;19.67;;
66298;SDS011;53098;47.658;8.578;2024-01-11T08:15:27;42.90;;;18.90;;
66298;SDS011;53098;47.658;8.578;2024-01-11T08:17:52;45.50;;;21.43;;
66298;SDS011;53098;47.658;8.578;2024-01-11T08:20:18;49.13;;;20.30;;
66298;SDS011;53098;47.658;8.578;2024-01-11T08:22:43;42.07;;;20.57;;
66298;SDS011;53098;47.658;8.578;2024-01-11T08:25:09;48.10;;;21.80;;
66298;SDS011;53098;47.658;8.578;2024-01-11T08:27:34;45.92;;;19.75;;
66298;SDS011;53098;47.658;8.578;2024-01-11T08:30:00;51.03;;;21.45;;
66298;SDS011;53098;47.658;8.578;2024-01-11T08:32:25;46.63;;;19.48;;
66298;SDS011;53098;47.658;8.578;2024-01-11T08:34:51;52.17;;;22.15;;
66298;SDS011;53098;47.658;8.578;2024-01-11T08:37:16;45.77;;;18.97;;
66298;SDS011;53098;47.658;8.578;2024-01-11T08:39:41;43.00;;;19.40;;
66298;SDS011;53098;47.658;8.578;2024-01-11T08:42:07;49.77;;;20.90;;
66298;SDS011;53098;47.658;8.578;2024-01-11T08:44:32;46.37;;;20.37;;
66298;SDS011;53098;47.658;8.578;2024-01-11T08:46:57;41.90;;;19.67;;
66298;SDS011;53098;47.658;8.578;2024-01-11T08:49:22;44.73;;;21.07;;
66298;SDS011;53098;47.658;8.578;2024-01-11T08:51:48;48.55;;;21.52;;
66298;SDS011;53098;47.658;8.578;2024-01-11T08:54:13;44.23;;;20.23;;
66298;SDS011;53098;47.658;8.578;2024-01-11T08:56:38;51.33;;;22.10;;
66298;SDS011;53098;47.658;8.578;2024-01-11T08:59:03;50.30;;;20.37;;
66298;SDS011;53098;47.658;8.578;2024-01-11T09:01:29;44.43;;;20.87;;
66298;SDS011;53098;47.658;8.578;2024-01-11T09:03:54;48.05;;;20.88;;
66298;SDS011;53098;47.658;8.578;2024-01-11T09:06:19;49.50;;;20.67;;
66298;SDS011;53098;47.658;8.578;2024-01-11T09:08:45;40.30;;;19.37;;
66298;SDS011;53098;47.658;8.578;2024-01-11T09:11:10;45.57;;;20.10;;
66298;SDS011;53098;47.658;8.578;2024-01-11T09:13:36;45.97;;;19.63;;
66298;SDS011;53098;47.658;8.578;2024-01-11T09:16:01;48.35;;;21.27;;
66298;SDS011;53098;47.658;8.578;2024-01-11T09:18:26;47.53;;;21.33;;
66298;SDS011;53098;47.658;8.578;2024-01-11T09:20:52;50.83;;;21.08;;
66298;SDS011;53098;47.658;8.578;2024-01-11T09:23:17;48.27;;;20.57;;
66298;SDS011;53098;47.658;8.578;2024-01-11T09:25:42;42.92;;;19.90;;
66298;SDS011;53098;47.658;8.578;2024-01-11T09:28:08;44.35;;;19.98;;
66298;SDS011;53098;47.658;8.578;2024-01-11T09:30:33;39.13;;;18.63;;
66298;SDS011;53098;47.658;8.578;2024-01-11T09:32:59;44.42;;;20.98;;
66298;SDS011;53098;47.658;8.578;2024-01-11T09:35:24;41.00;;;19.23;;
66298;SDS011;53098;47.658;8.578;2024-01-11T09:37:49;46.13;;;19.58;;
66298;SDS011;53098;47.658;8.578;2024-01-11T09:40:16;44.28;;;20.08;;
66298;SDS011;53098;47.658;8.578;2024-01-11T09:42:42;47.22;;;20.77;;
66298;SDS011;53098;47.658;8.578;2024-01-11T09:45:14;48.75;;;20.35;;
66298;SDS011;53098;47.658;8.578;2024-01-11T09:47:40;50.17;;;21.40;;
66298;SDS011;53098;47.658;8.578;2024-01-11T09:50:05;46.35;;;20.20;;
66298;SDS011;53098;47.658;8.578;2024-01-11T09:52:32;44.80;;;19.45;;
66298;SDS011;53098;47.658;8.578;2024-01-11T09:55:01;41.40;;;18.80;;
66298;SDS011;53098;47.658;8.578;2024-01-11T09:57:30;46.35;;;21.00;;
66298;SDS011;53098;47.658;8.578;2024-01-11T09:59:56;45.63;;;20.83;;
66298;SDS011;53098;47.658;8.578;2024-01-11T10:02:25;43.10;;;20.13;;
66298;SDS011;53098;47.658;8.578;2024-01-11T10:04:51;50.38;;;20.00;;
66298;SDS011;53098;47.658;8.578;2024-01-11T10:07:16;47.72;;;18.73;;
66298;SDS011;53098;47.658;8.578;2024-01-11T10:09:42;44.13;;;20.45;;
66298;SDS011;53098;47.658;8.578;2024-01-11T10:12:07;42.83;;;19.98;;
66298;SDS011;53098;47.658;8.578;2024-01-11T10:14:33;48.03;;;21.52;;
66298;SDS011;53098;47.658;8.578;2024-01-11T10:16:58;47.17;;;20.47;;
66298;SDS011;53098;47.658;8.578;2024-01-11T10:19:23;53.80;;;21.10;;
66298;SDS011;53098;47.658;8.578;2024-01-11T10:21:49;49.07;;;20.23;;
66298;SDS011;53098;47.658;8.578;2024-01-11T10:24:20;43.90;;;20.27;;
66298;SDS011;53098;47.658;8.578;2024-01-11T10:26:45;55.00;;;20.98;;
66298;SDS011;53098;47.658;8.578;2024-01-11T10:29:11;47.75;;;21.70;;
66298;SDS011;53098;47.658;8.578;2024-01-11T10:31:36;51.78;;;21.90;;
66298;SDS011;53098;47.658;8.578;2024-01-11T10:34:02;53.13;;;21.03;;
66298;SDS011;53098;47.658;8.578;2024-01-11T10:36:30;53.33;;;21.70;;
66298;SDS011;53098;47.658;8.578;2024-01-11T10:38:55;48.83;;;20.60;;
66298;SDS011;53098;47.658;8.578;2024-01-11T10:41:21;49.72;;;20.42;;
66298;SDS011;53098;47.658;8.578;2024-01-11T10:43:46;49.80;;;21.00;;
66298;SDS011;53098;47.658;8.578;2024-01-11T10:46:13;42.45;;;18.40;;
66298;SDS011;53098;47.658;8.578;2024-01-11T10:48:40;46.55;;;19.17;;
66298;SDS011;53098;47.658;8.578;2024-01-11T10:51:09;45.95;;;18.75;;
66298;SDS011;53098;47.658;8.578;2024-01-11T10:56:01;46.67;;;19.63;;
66298;SDS011;53098;47.658;8.578;2024-01-11T10:58:28;42.80;;;20.48;;
66298;SDS011;53098;47.658;8.578;2024-01-11T11:00:54;48.72;;;18.55;;
66298;SDS011;53098;47.658;8.578;2024-01-11T11:03:20;44.97;;;19.77;;
66298;SDS011;53098;47.658;8.578;2024-01-11T11:05:50;42.13;;;18.98;;
66298;SDS011;53098;47.658;8.578;2024-01-11T11:08:18;45.63;;;20.25;;
66298;SDS011;53098;47.658;8.578;2024-01-11T11:10:45;41.58;;;19.35;;
66298;SDS011;53098;47.658;8.578;2024-01-11T11:13:11;40.88;;;18.70;;
66298;SDS011;53098;47.658;8.578;2024-01-11T11:15:39;37.67;;;17.85;;
66298;SDS011;53098;47.658;8.578;2024-01-11T11:18:05;44.33;;;18.42;;
66298;SDS011;53098;47.658;8.578;2024-01-11T11:20:31;41.33;;;18.85;;
66298;SDS011;53098;47.658;8.578;2024-01-11T11:23:02;46.03;;;19.15;;
66298;SDS011;53098;47.658;8.578;2024-01-11T11:25:28;43.65;;;19.20;;
66298;SDS011;53098;47.658;8.578;2024-01-11T11:27:54;42.53;;;19.65;;
66298;SDS011;53098;47.658;8.578;2024-01-11T11:30:19;46.67;;;18.83;;
66298;SDS011;53098;47.658;8.578;2024-01-11T11:32:45;48.37;;;18.83;;
66298;SDS011;53098;47.658;8.578;2024-01-11T11:35:10;47.90;;;20.23;;
66298;SDS011;53098;47.658;8.578;2024-01-11T11:37:36;45.75;;;19.38;;
66298;SDS011;53098;47.658;8.578;2024-01-11T11:40:01;46.85;;;19.85;;
66298;SDS011;53098;47.658;8.578;2024-01-11T11:42:27;48.63;;;20.35;;
66298;SDS011;53098;47.658;8.578;2024-01-11T11:44:55;43.05;;;18.15;;
66298;SDS011;53098;47.658;8.578;2024-01-11T11:47:23;50.10;;;20.07;;
66298;SDS011;53098;47.658;8.578;2024-01-11T11:50:07;45.50;;;21.45;;
66298;SDS011;53098;47.658;8.578;2024-01-11T11:52:33;48.90;;;19.15;;
66298;SDS011;53098;47.658;8.578;2024-01-11T11:54:59;46.67;;;18.83;;
66298;SDS011;53098;47.658;8.578;2024-01-11T11:57:25;45.75;;;19.17;;
66298;SDS011;53098;47.658;8.578;2024-01-11T11:59:51;41.28;;;17.80;;
66298;SDS011;53098;47.658;8.578;2024-01-11T12:02:17;50.42;;;19.65;;
66298;SDS011;53098;47.658;8.578;2024-01-11T12:04:48;46.90;;;18.83;;
66298;SDS011;53098;47.658;8.578;2024-01-11T12:07:14;43.83;;;18.38;;
66298;SDS011;53098;47.658;8.578;2024-01-11T12:09:40;39.63;;;19.52;;
66298;SDS011;53098;47.658;8.578;2024-01-11T12:12:06;39.42;;;16.65;;
66298;SDS011;53098;47.658;8.578;2024-01-11T12:14:31;46.03;;;18.92;;
66298;SDS011;53098;47.658;8.578;2024-01-11T12:16:59;41.13;;;18.43;;
66298;SDS011;53098;47.658;8.578;2024-01-11T12:19:25;42.42;;;18.42;;
66298;SDS011;53098;47.658;8.578;2024-01-11T12:21:50;37.35;;;16.63;;
66298;SDS011;53098;47.658;8.578;2024-01-11T12:24:16;40.38;;;17.05;;
66298;SDS011;53098;47.658;8.578;2024-01-11T12:26:42;38.70;;;16.65;;
66298;SDS011;53098;47.658;8.578;2024-01-11T12:29:07;36.80;;;16.08;;
66298;SDS011;53098;47.658;8.578;2024-01-11T12:31:33;38.72;;;16.40;;
66298;SDS011;53098;47.658;8.578;2024-01-11T12:33:58;41.55;;;17.70;;
66298;SDS011;53098;47.658;8.578;2024-01-11T12:36:24;39.63;;;15.43;;
66298;SDS011;53098;47.658;8.578;2024-01-11T12:38:49;36.65;;;16.92;;
66298;SDS011;53098;47.658;8.578;2024-01-11T12:41:15;34.83;;;15.10;;
66298;SDS011;53098;47.658;8.578;2024-01-11T12:43:40;35.60;;;15.45;;
66298;SDS011;53098;47.658;8.578;2024-01-11T12:46:15;35.67;;;15.30;;
66298;SDS011;53098;47.658;8.578;2024-01-11T12:48:41;39.05;;;16.70;;
66298;SDS011;53098;47.658;8.578;2024-01-11T12:51:06;34.85;;;14.68;;
66298;SDS011;53098;47.658;8.578;2024-01-11T12:53:32;33.47;;;15.25;;
66298;SDS011;53098;47.658;8.578;2024-01-11T12:56:06;31.65;;;14.50;;
66298;SDS011;53098;47.658;8.578;2024-01-11T12:58:32;33.33;;;14.32;;
66298;SDS011;53098;47.658;8.578;2024-01-11T13:00:57;38.80;;;15.77;;
66298;SDS011;53098;47.658;8.578;2024-01-11T13:03:24;36.90;;;15.70;;
66298;SDS011;53098;47.658;8.578;2024-01-11T13:05:50;37.13;;;14.93;;
66298;SDS011;53098;47.658;8.578;2024-01-11T13:08:16;39.55;;;16.55;;
66298;SDS011;53098;47.658;8.578;2024-01-11T13:10:41;38.87;;;17.00;;
66298;SDS011;53098;47.658;8.578;2024-01-11T13:13:06;36.80;;;16.37;;
66298;SDS011;53098;47.658;8.578;2024-01-11T13:15:31;35.20;;;15.93;;
66298;SDS011;53098;47.658;8.578;2024-01-11T13:17:57;38.38;;;17.15;;
66298;SDS011;53098;47.658;8.578;2024-01-11T13:20:23;44.47;;;15.95;;
66298;SDS011;53098;47.658;8.578;2024-01-11T13:22:49;36.83;;;15.90;;
66298;SDS011;53098;47.658;8.578;2024-01-11T13:25:15;37.10;;;15.70;;
66298;SDS011;53098;47.658;8.578;2024-01-11T13:27:40;37.10;;;17.50;;
66298;SDS011;53098;47.658;8.578;2024-01-11T13:30:06;41.77;;;17.70;;
66298;SDS011;53098;47.658;8.578;2024-01-11T13:32:31;37.55;;;16.55;;
66298;SDS011;53098;47.658;8.578;2024-01-11T13:34:56;40.80;;;17.17;;
66298;SDS011;53098;47.658;8.578;2024-01-11T13:37:21;43.27;;;17.87;;
66298;SDS011;53098;47.658;8.578;2024-01-11T13:39:47;41.70;;;17.40;;
66298;SDS011;53098;47.658;8.578;2024-01-11T13:42:12;43.60;;;17.70;;
66298;SDS011;53098;47.658;8.578;2024-01-11T13:44:38;38.80;;;16.90;;
66298;SDS011;53098;47.658;8.578;2024-01-11T13:47:03;37.47;;;17.23;;
66298;SDS011;53098;47.658;8.578;2024-01-11T13:49:28;41.90;;;18.13;;
66298;SDS011;53098;47.658;8.578;2024-01-11T13:51:54;36.15;;;16.30;;
66298;SDS011;53098;47.658;8.578;2024-01-11T13:54:19;38.63;;;16.03;;
66298;SDS011;53098;47.658;8.578;2024-01-11T13:56:45;36.22;;;16.60;;
66298;SDS011;53098;47.658;8.578;2024-01-11T13:59:10;40.08;;;17.20;;
66298;SDS011;53098;47.658;8.578;2024-01-11T14:01:36;42.72;;;18.13;;
66298;SDS011;53098;47.658;8.578;2024-01-11T14:04:01;38.30;;;15.80;;
66298;SDS011;53098;47.658;8.578;2024-01-11T14:06:27;33.92;;;15.75;;
66298;SDS011;53098;47.658;8.578;2024-01-11T14:08:52;34.40;;;15.75;;
66298;SDS011;53098;47.658;8.578;2024-01-11T14:11:18;34.88;;;16.23;;
66298;SDS011;53098;47.658;8.578;2024-01-11T14:13:43;34.23;;;15.97;;